Nearby METAR Reports

 

CYXU - London Airport, Ontario, Canada
Distance from station: SSE 21km
Updated: 23/05/2018 19:00
Few Clouds
Few Clouds
 Wind from WNW
Wind: WNW 20 km/h
Temperature: 21°C
Dew Point: 5°C
Humidity: 35%
Barometer: 1021 hPa
Clouds: Few Clouds
Visibility: 24 km
Cloud details: Few Clouds 7620 m
2018/05/23 23:00 CYXU 232300Z 30011KT 280V350 15SM FEW250 21/05 A3015 RMK CI1 SLP212 DENSITY ALT 1700FT
CXDI - Delhi Cs (aut), Ontario, Canada
Distance from station: SE 65km
Updated: 23/05/2018 19:00

 Wind from WNW
Wind: WNW 15 km/h
Temperature: 24°C
Dew Point: 4°C
Humidity: 27%
2018/05/23 23:00 CXDI 232300Z AUTO 30008KT 24/04 RMK AO1 PK WND 30017/2243 SLP194 T02440042 51006
 
CYKF - Waterloo Well, Ontario, Canada
Distance from station: ENE 72km
Updated: 31/12/1969 19:00
NOT Current
unable to load CYKF data RC=404 Not Found
unable to load CYKF data RC=404 Not Found
 
CWGD - Goderich (autob), Ontario, Canada
Distance from station: NW 76km
Updated: 23/05/2018 19:00

 Wind from NW
Wind: NW 6 km/h
Temperature: 15°C
Dew Point: 8°C
Humidity: 63%
2018/05/23 23:00 CWGD 232300Z AUTO 31003KT 15/08 RMK AO1 SLP213 T01480083 58001
 
CZEL - Elora Rcs, Ontario, Canada
Distance from station: NE 81km
Updated: 23/05/2018 19:00

 Wind from WNW
Wind: WNW 11 km/h
Temperature: 23°C
Dew Point: 10°C
Humidity: 44%
2018/05/23 23:00 CZEL 232300Z AUTO 30006KT 23/10 RMK AO1 SLP202 T02280096 51004